sensor_id;sensor_type;location;lat;lon;timestamp;P1;durP1;ratioP1;P2;durP2;ratioP2
5121;SDS011;2563;52.242;7.956;2024-03-17T00:00:41;13.57;;;5.17;;
5121;SDS011;2563;52.242;7.956;2024-03-17T00:03:07;13.20;;;3.60;;
5121;SDS011;2563;52.242;7.956;2024-03-17T00:05:34;10.93;;;3.00;;
5121;SDS011;2563;52.242;7.956;2024-03-17T00:08:03;10.20;;;2.87;;
5121;SDS011;2563;52.242;7.956;2024-03-17T00:10:31;9.13;;;3.20;;
5121;SDS011;2563;52.242;7.956;2024-03-17T00:12:57;10.97;;;3.20;;
5121;SDS011;2563;52.242;7.956;2024-03-17T00:15:23;10.47;;;3.27;;
5121;SDS011;2563;52.242;7.956;2024-03-17T00:17:49;11.53;;;3.23;;
5121;SDS011;2563;52.242;7.956;2024-03-17T00:20:14;8.70;;;2.67;;
5121;SDS011;2563;52.242;7.956;2024-03-17T00:22:47;11.50;;;3.10;;
5121;SDS011;2563;52.242;7.956;2024-03-17T00:25:14;10.23;;;3.07;;
5121;SDS011;2563;52.242;7.956;2024-03-17T00:27:39;9.67;;;2.90;;
5121;SDS011;2563;52.242;7.956;2024-03-17T00:30:08;12.20;;;3.10;;
5121;SDS011;2563;52.242;7.956;2024-03-17T00:32:37;9.67;;;3.17;;
5121;SDS011;2563;52.242;7.956;2024-03-17T00:35:04;14.13;;;4.30;;
5121;SDS011;2563;52.242;7.956;2024-03-17T00:37:30;15.00;;;3.27;;
5121;SDS011;2563;52.242;7.956;2024-03-17T00:39:56;8.53;;;2.77;;
5121;SDS011;2563;52.242;7.956;2024-03-17T00:42:21;11.10;;;3.27;;
5121;SDS011;2563;52.242;7.956;2024-03-17T00:44:46;9.93;;;3.07;;
5121;SDS011;2563;52.242;7.956;2024-03-17T00:47:12;10.93;;;3.13;;
5121;SDS011;2563;52.242;7.956;2024-03-17T00:49:37;8.70;;;2.83;;
5121;SDS011;2563;52.242;7.956;2024-03-17T00:52:02;8.27;;;3.20;;
5121;SDS011;2563;52.242;7.956;2024-03-17T00:54:28;10.23;;;2.60;;
5121;SDS011;2563;52.242;7.956;2024-03-17T00:56:53;9.17;;;3.00;;
5121;SDS011;2563;52.242;7.956;2024-03-17T00:59:19;7.40;;;2.37;;
5121;SDS011;2563;52.242;7.956;2024-03-17T01:01:44;11.30;;;3.07;;
5121;SDS011;2563;52.242;7.956;2024-03-17T01:04:09;8.63;;;2.67;;
5121;SDS011;2563;52.242;7.956;2024-03-17T01:06:35;9.73;;;2.30;;
5121;SDS011;2563;52.242;7.956;2024-03-17T01:09:00;9.27;;;2.73;;
5121;SDS011;2563;52.242;7.956;2024-03-17T01:11:26;9.20;;;2.53;;
5121;SDS011;2563;52.242;7.956;2024-03-17T01:13:52;7.33;;;2.33;;
5121;SDS011;2563;52.242;7.956;2024-03-17T01:16:17;5.20;;;1.97;;
5121;SDS011;2563;52.242;7.956;2024-03-17T01:18:43;15.90;;;3.47;;
5121;SDS011;2563;52.242;7.956;2024-03-17T01:21:10;8.97;;;2.50;;
5121;SDS011;2563;52.242;7.956;2024-03-17T01:23:36;15.60;;;2.83;;
5121;SDS011;2563;52.242;7.956;2024-03-17T01:26:02;7.60;;;3.00;;
5121;SDS011;2563;52.242;7.956;2024-03-17T01:28:27;6.00;;;2.10;;
5121;SDS011;2563;52.242;7.956;2024-03-17T01:30:52;7.17;;;2.90;;
5121;SDS011;2563;52.242;7.956;2024-03-17T01:33:18;13.53;;;2.10;;
5121;SDS011;2563;52.242;7.956;2024-03-17T01:35:43;11.83;;;2.50;;
5121;SDS011;2563;52.242;7.956;2024-03-17T01:38:09;8.77;;;2.80;;
5121;SDS011;2563;52.242;7.956;2024-03-17T01:40:37;13.00;;;2.40;;
5121;SDS011;2563;52.242;7.956;2024-03-17T01:43:03;11.47;;;3.00;;
5121;SDS011;2563;52.242;7.956;2024-03-17T01:45:29;8.10;;;2.60;;
5121;SDS011;2563;52.242;7.956;2024-03-17T01:47:57;9.63;;;3.50;;
5121;SDS011;2563;52.242;7.956;2024-03-17T01:50:28;10.90;;;2.40;;
5121;SDS011;2563;52.242;7.956;2024-03-17T01:53:00;9.97;;;2.83;;
5121;SDS011;2563;52.242;7.956;2024-03-17T01:55:29;6.47;;;2.20;;
5121;SDS011;2563;52.242;7.956;2024-03-17T01:57:56;8.53;;;3.00;;
5121;SDS011;2563;52.242;7.956;2024-03-17T02:00:21;17.83;;;2.80;;
5121;SDS011;2563;52.242;7.956;2024-03-17T02:02:48;9.57;;;3.50;;
5121;SDS011;2563;52.242;7.956;2024-03-17T02:05:13;12.27;;;3.33;;
5121;SDS011;2563;52.242;7.956;2024-03-17T02:07:39;7.00;;;2.77;;
5121;SDS011;2563;52.242;7.956;2024-03-17T02:10:05;8.70;;;3.50;;
5121;SDS011;2563;52.242;7.956;2024-03-17T02:12:33;9.20;;;2.80;;
5121;SDS011;2563;52.242;7.956;2024-03-17T02:14:59;6.77;;;2.57;;
5121;SDS011;2563;52.242;7.956;2024-03-17T02:17:25;11.90;;;2.70;;
5121;SDS011;2563;52.242;7.956;2024-03-17T02:19:52;7.23;;;2.83;;
5121;SDS011;2563;52.242;7.956;2024-03-17T02:22:17;13.57;;;3.40;;
5121;SDS011;2563;52.242;7.956;2024-03-17T02:24:43;8.27;;;2.33;;
5121;SDS011;2563;52.242;7.956;2024-03-17T02:27:09;15.00;;;3.17;;
5121;SDS011;2563;52.242;7.956;2024-03-17T02:29:35;8.20;;;3.10;;
5121;SDS011;2563;52.242;7.956;2024-03-17T02:32:02;11.23;;;3.40;;
5121;SDS011;2563;52.242;7.956;2024-03-17T02:34:32;11.07;;;3.40;;
5121;SDS011;2563;52.242;7.956;2024-03-17T02:37:00;12.37;;;3.60;;
5121;SDS011;2563;52.242;7.956;2024-03-17T02:39:27;11.43;;;3.53;;
5121;SDS011;2563;52.242;7.956;2024-03-17T02:42:08;10.77;;;4.50;;
5121;SDS011;2563;52.242;7.956;2024-03-17T02:44:35;10.60;;;3.20;;
5121;SDS011;2563;52.242;7.956;2024-03-17T02:47:03;9.60;;;3.40;;
5121;SDS011;2563;52.242;7.956;2024-03-17T02:49:34;8.87;;;3.50;;
5121;SDS011;2563;52.242;7.956;2024-03-17T02:52:09;9.67;;;3.33;;
5121;SDS011;2563;52.242;7.956;2024-03-17T02:54:35;8.90;;;2.87;;
5121;SDS011;2563;52.242;7.956;2024-03-17T02:57:02;8.97;;;3.03;;
5121;SDS011;2563;52.242;7.956;2024-03-17T02:59:28;6.53;;;2.40;;
5121;SDS011;2563;52.242;7.956;2024-03-17T03:01:54;11.20;;;3.60;;
5121;SDS011;2563;52.242;7.956;2024-03-17T03:04:19;8.40;;;3.07;;
5121;SDS011;2563;52.242;7.956;2024-03-17T03:06:45;8.53;;;2.40;;
5121;SDS011;2563;52.242;7.956;2024-03-17T03:09:10;9.97;;;2.87;;
5121;SDS011;2563;52.242;7.956;2024-03-17T03:11:40;13.27;;;3.63;;
5121;SDS011;2563;52.242;7.956;2024-03-17T03:14:06;6.93;;;2.87;;
5121;SDS011;2563;52.242;7.956;2024-03-17T03:16:32;12.90;;;3.47;;
5121;SDS011;2563;52.242;7.956;2024-03-17T03:18:57;10.43;;;3.07;;
5121;SDS011;2563;52.242;7.956;2024-03-17T03:21:22;13.70;;;3.10;;
5121;SDS011;2563;52.242;7.956;2024-03-17T03:23:48;9.40;;;2.93;;
5121;SDS011;2563;52.242;7.956;2024-03-17T03:26:13;10.63;;;3.37;;
5121;SDS011;2563;52.242;7.956;2024-03-17T03:28:39;9.50;;;3.10;;
5121;SDS011;2563;52.242;7.956;2024-03-17T03:31:04;8.87;;;3.53;;
5121;SDS011;2563;52.242;7.956;2024-03-17T03:33:30;8.97;;;2.87;;
5121;SDS011;2563;52.242;7.956;2024-03-17T03:35:56;8.50;;;3.23;;
5121;SDS011;2563;52.242;7.956;2024-03-17T03:38:22;6.63;;;2.97;;
5121;SDS011;2563;52.242;7.956;2024-03-17T03:40:48;9.77;;;3.67;;
5121;SDS011;2563;52.242;7.956;2024-03-17T03:43:13;7.90;;;3.00;;
5121;SDS011;2563;52.242;7.956;2024-03-17T03:45:40;8.50;;;2.27;;
5121;SDS011;2563;52.242;7.956;2024-03-17T03:48:06;8.30;;;2.60;;
5121;SDS011;2563;52.242;7.956;2024-03-17T03:50:33;20.77;;;3.80;;
5121;SDS011;2563;52.242;7.956;2024-03-17T03:52:59;9.10;;;3.43;;
5121;SDS011;2563;52.242;7.956;2024-03-17T03:55:24;11.10;;;3.30;;
5121;SDS011;2563;52.242;7.956;2024-03-17T03:57:50;7.57;;;2.50;;
5121;SDS011;2563;52.242;7.956;2024-03-17T04:00:17;8.67;;;2.37;;
5121;SDS011;2563;52.242;7.956;2024-03-17T04:02:47;7.30;;;2.47;;
5121;SDS011;2563;52.242;7.956;2024-03-17T04:05:20;7.40;;;2.67;;
5121;SDS011;2563;52.242;7.956;2024-03-17T04:07:46;9.23;;;2.83;;
5121;SDS011;2563;52.242;7.956;2024-03-17T04:10:14;9.93;;;2.83;;
5121;SDS011;2563;52.242;7.956;2024-03-17T04:12:41;10.27;;;2.70;;
5121;SDS011;2563;52.242;7.956;2024-03-17T04:15:07;7.40;;;2.57;;
5121;SDS011;2563;52.242;7.956;2024-03-17T04:17:35;6.70;;;2.47;;
5121;SDS011;2563;52.242;7.956;2024-03-17T04:20:01;21.27;;;3.60;;
5121;SDS011;2563;52.242;7.956;2024-03-17T04:22:26;14.00;;;2.50;;
5121;SDS011;2563;52.242;7.956;2024-03-17T04:24:52;8.70;;;2.33;;
5121;SDS011;2563;52.242;7.956;2024-03-17T04:27:21;8.27;;;2.60;;
5121;SDS011;2563;52.242;7.956;2024-03-17T04:29:47;12.60;;;2.60;;
5121;SDS011;2563;52.242;7.956;2024-03-17T04:32:14;6.63;;;2.60;;
5121;SDS011;2563;52.242;7.956;2024-03-17T04:34:39;8.53;;;2.70;;
5121;SDS011;2563;52.242;7.956;2024-03-17T04:37:04;16.40;;;3.00;;
5121;SDS011;2563;52.242;7.956;2024-03-17T04:39:30;9.37;;;3.17;;
5121;SDS011;2563;52.242;7.956;2024-03-17T04:41:56;5.23;;;1.90;;
5121;SDS011;2563;52.242;7.956;2024-03-17T04:44:21;12.40;;;3.73;;
5121;SDS011;2563;52.242;7.956;2024-03-17T04:46:47;6.43;;;2.07;;
5121;SDS011;2563;52.242;7.956;2024-03-17T04:49:13;8.70;;;2.77;;
5121;SDS011;2563;52.242;7.956;2024-03-17T04:51:39;7.03;;;2.47;;
5121;SDS011;2563;52.242;7.956;2024-03-17T04:54:04;5.90;;;2.30;;
5121;SDS011;2563;52.242;7.956;2024-03-17T04:56:32;5.43;;;2.10;;
5121;SDS011;2563;52.242;7.956;2024-03-17T04:58:57;8.87;;;2.40;;
5121;SDS011;2563;52.242;7.956;2024-03-17T05:01:22;9.17;;;2.30;;
5121;SDS011;2563;52.242;7.956;2024-03-17T05:03:51;6.77;;;2.07;;
5121;SDS011;2563;52.242;7.956;2024-03-17T05:06:16;10.17;;;2.13;;
5121;SDS011;2563;52.242;7.956;2024-03-17T05:08:42;8.20;;;2.73;;
5121;SDS011;2563;52.242;7.956;2024-03-17T05:11:08;7.57;;;2.23;;
5121;SDS011;2563;52.242;7.956;2024-03-17T05:13:34;13.87;;;4.00;;
5121;SDS011;2563;52.242;7.956;2024-03-17T05:16:00;11.00;;;2.63;;
5121;SDS011;2563;52.242;7.956;2024-03-17T05:18:27;6.77;;;2.47;;
5121;SDS011;2563;52.242;7.956;2024-03-17T05:21:02;6.13;;;2.20;;
5121;SDS011;2563;52.242;7.956;2024-03-17T05:23:29;7.37;;;3.00;;
5121;SDS011;2563;52.242;7.956;2024-03-17T05:25:56;13.03;;;2.90;;
5121;SDS011;2563;52.242;7.956;2024-03-17T05:28:23;9.93;;;2.67;;
5121;SDS011;2563;52.242;7.956;2024-03-17T05:30:49;8.10;;;2.40;;
5121;SDS011;2563;52.242;7.956;2024-03-17T05:33:18;9.27;;;2.63;;
5121;SDS011;2563;52.242;7.956;2024-03-17T05:35:49;7.13;;;2.23;;
5121;SDS011;2563;52.242;7.956;2024-03-17T05:38:17;8.43;;;2.10;;
5121;SDS011;2563;52.242;7.956;2024-03-17T05:40:59;7.93;;;2.37;;
5121;SDS011;2563;52.242;7.956;2024-03-17T05:43:30;8.97;;;2.77;;
5121;SDS011;2563;52.242;7.956;2024-03-17T05:45:58;12.20;;;2.73;;
5121;SDS011;2563;52.242;7.956;2024-03-17T05:48:26;8.97;;;3.10;;
5121;SDS011;2563;52.242;7.956;2024-03-17T05:50:51;14.30;;;3.30;;
5121;SDS011;2563;52.242;7.956;2024-03-17T05:53:17;7.57;;;2.87;;
5121;SDS011;2563;52.242;7.956;2024-03-17T05:55:43;11.30;;;3.73;;
5121;SDS011;2563;52.242;7.956;2024-03-17T05:58:09;13.30;;;4.30;;
5121;SDS011;2563;52.242;7.956;2024-03-17T06:00:37;13.77;;;3.47;;
5121;SDS011;2563;52.242;7.956;2024-03-17T06:03:04;6.83;;;3.00;;
5121;SDS011;2563;52.242;7.956;2024-03-17T06:05:33;10.17;;;2.97;;
5121;SDS011;2563;52.242;7.956;2024-03-17T06:08:00;7.47;;;2.40;;
5121;SDS011;2563;52.242;7.956;2024-03-17T06:10:30;8.13;;;2.90;;
5121;SDS011;2563;52.242;7.956;2024-03-17T06:12:56;10.07;;;2.93;;
5121;SDS011;2563;52.242;7.956;2024-03-17T06:15:22;14.00;;;3.07;;
5121;SDS011;2563;52.242;7.956;2024-03-17T06:17:48;12.07;;;3.10;;
5121;SDS011;2563;52.242;7.956;2024-03-17T06:20:16;11.07;;;3.30;;
5121;SDS011;2563;52.242;7.956;2024-03-17T06:22:42;8.20;;;2.70;;
5121;SDS011;2563;52.242;7.956;2024-03-17T06:25:08;9.23;;;3.87;;
5121;SDS011;2563;52.242;7.956;2024-03-17T06:27:33;11.47;;;3.53;;
5121;SDS011;2563;52.242;7.956;2024-03-17T06:30:01;9.63;;;3.80;;
5121;SDS011;2563;52.242;7.956;2024-03-17T06:32:30;9.57;;;3.13;;
5121;SDS011;2563;52.242;7.956;2024-03-17T06:35:01;11.50;;;3.33;;
5121;SDS011;2563;52.242;7.956;2024-03-17T06:37:27;10.30;;;2.93;;
5121;SDS011;2563;52.242;7.956;2024-03-17T06:39:52;9.40;;;3.30;;
5121;SDS011;2563;52.242;7.956;2024-03-17T06:42:18;12.10;;;3.83;;
5121;SDS011;2563;52.242;7.956;2024-03-17T06:44:44;8.90;;;3.50;;
5121;SDS011;2563;52.242;7.956;2024-03-17T06:47:09;8.67;;;3.50;;
5121;SDS011;2563;52.242;7.956;2024-03-17T06:49:35;8.70;;;2.90;;
5121;SDS011;2563;52.242;7.956;2024-03-17T06:52:00;12.07;;;3.57;;
5121;SDS011;2563;52.242;7.956;2024-03-17T06:54:26;9.57;;;3.67;;
5121;SDS011;2563;52.242;7.956;2024-03-17T06:56:51;10.20;;;3.50;;
5121;SDS011;2563;52.242;7.956;2024-03-17T06:59:17;10.70;;;2.90;;
5121;SDS011;2563;52.242;7.956;2024-03-17T07:01:42;10.80;;;3.40;;
5121;SDS011;2563;52.242;7.956;2024-03-17T07:04:09;14.10;;;5.77;;
5121;SDS011;2563;52.242;7.956;2024-03-17T07:06:35;15.90;;;5.37;;
5121;SDS011;2563;52.242;7.956;2024-03-17T07:09:01;16.17;;;5.30;;
5121;SDS011;2563;52.242;7.956;2024-03-17T07:11:26;15.40;;;4.60;;
5121;SDS011;2563;52.242;7.956;2024-03-17T07:13:52;15.43;;;5.33;;
5121;SDS011;2563;52.242;7.956;2024-03-17T07:16:17;16.80;;;5.13;;
5121;SDS011;2563;52.242;7.956;2024-03-17T07:18:43;10.10;;;3.80;;
5121;SDS011;2563;52.242;7.956;2024-03-17T07:21:09;9.50;;;3.27;;
5121;SDS011;2563;52.242;7.956;2024-03-17T07:23:35;14.43;;;4.10;;
5121;SDS011;2563;52.242;7.956;2024-03-17T07:26:02;15.20;;;3.53;;
5121;SDS011;2563;52.242;7.956;2024-03-17T07:28:29;13.37;;;4.30;;
5121;SDS011;2563;52.242;7.956;2024-03-17T07:30:57;10.77;;;3.60;;
5121;SDS011;2563;52.242;7.956;2024-03-17T07:33:23;12.37;;;4.00;;
5121;SDS011;2563;52.242;7.956;2024-03-17T07:35:53;12.97;;;3.60;;
5121;SDS011;2563;52.242;7.956;2024-03-17T07:38:21;10.60;;;3.37;;
5121;SDS011;2563;52.242;7.956;2024-03-17T07:41:04;13.47;;;4.03;;
5121;SDS011;2563;52.242;7.956;2024-03-17T07:43:32;9.90;;;3.73;;
5121;SDS011;2563;52.242;7.956;2024-03-17T07:48:30;9.57;;;3.37;;
5121;SDS011;2563;52.242;7.956;2024-03-17T07:51:03;10.70;;;3.87;;
5121;SDS011;2563;52.242;7.956;2024-03-17T07:53:31;14.97;;;4.03;;
5121;SDS011;2563;52.242;7.956;2024-03-17T07:56:07;9.83;;;4.10;;
5121;SDS011;2563;52.242;7.956;2024-03-17T07:58:38;12.43;;;4.57;;
5121;SDS011;2563;52.242;7.956;2024-03-17T08:01:08;15.83;;;4.30;;
5121;SDS011;2563;52.242;7.956;2024-03-17T08:03:36;14.10;;;4.57;;
5121;SDS011;2563;52.242;7.956;2024-03-17T08:06:04;13.23;;;4.47;;
5121;SDS011;2563;52.242;7.956;2024-03-17T08:08:31;10.60;;;4.10;;
5121;SDS011;2563;52.242;7.956;2024-03-17T08:10:57;10.27;;;4.13;;
5121;SDS011;2563;52.242;7.956;2024-03-17T08:13:23;14.83;;;4.50;;
5121;SDS011;2563;52.242;7.956;2024-03-17T08:15:58;10.03;;;4.20;;
5121;SDS011;2563;52.242;7.956;2024-03-17T08:18:25;11.17;;;4.80;;
5121;SDS011;2563;52.242;7.956;2024-03-17T08:20:52;14.83;;;4.70;;
5121;SDS011;2563;52.242;7.956;2024-03-17T08:23:19;17.90;;;5.20;;
5121;SDS011;2563;52.242;7.956;2024-03-17T08:26:18;8.70;;;4.97;;
5121;SDS011;2563;52.242;7.956;2024-03-17T08:28:37;15.27;;;5.03;;
5121;SDS011;2563;52.242;7.956;2024-03-17T08:31:03;13.10;;;5.27;;
5121;SDS011;2563;52.242;7.956;2024-03-17T08:33:29;18.00;;;5.10;;
5121;SDS011;2563;52.242;7.956;2024-03-17T08:38:25;20.53;;;5.83;;
5121;SDS011;2563;52.242;7.956;2024-03-17T08:40:53;12.40;;;5.43;;
5121;SDS011;2563;52.242;7.956;2024-03-17T08:43:19;12.93;;;6.47;;
5121;SDS011;2563;52.242;7.956;2024-03-17T08:45:53;15.53;;;6.57;;
5121;SDS011;2563;52.242;7.956;2024-03-17T08:48:38;12.67;;;6.17;;
5121;SDS011;2563;52.242;7.956;2024-03-17T08:51:06;14.00;;;6.90;;
5121;SDS011;2563;52.242;7.956;2024-03-17T08:53:32;11.70;;;6.33;;
5121;SDS011;2563;52.242;7.956;2024-03-17T08:55:58;13.53;;;6.63;;
5121;SDS011;2563;52.242;7.956;2024-03-17T08:58:24;14.20;;;6.50;;
5121;SDS011;2563;52.242;7.956;2024-03-17T09:00:50;11.60;;;5.27;;
5121;SDS011;2563;52.242;7.956;2024-03-17T09:03:16;11.23;;;5.00;;
5121;SDS011;2563;52.242;7.956;2024-03-17T09:05:43;14.57;;;5.33;;
5121;SDS011;2563;52.242;7.956;2024-03-17T09:08:14;13.27;;;6.27;;
5121;SDS011;2563;52.242;7.956;2024-03-17T09:10:40;13.40;;;5.30;;
5121;SDS011;2563;52.242;7.956;2024-03-17T09:13:06;12.20;;;5.60;;
5121;SDS011;2563;52.242;7.956;2024-03-17T09:15:32;8.67;;;5.03;;
5121;SDS011;2563;52.242;7.956;2024-03-17T09:17:57;12.20;;;5.20;;
5121;SDS011;2563;52.242;7.956;2024-03-17T09:20:23;11.70;;;5.17;;
5121;SDS011;2563;52.242;7.956;2024-03-17T09:22:49;10.73;;;5.10;;
5121;SDS011;2563;52.242;7.956;2024-03-17T09:25:14;7.93;;;4.40;;
5121;SDS011;2563;52.242;7.956;2024-03-17T09:27:40;13.40;;;5.57;;
5121;SDS011;2563;52.242;7.956;2024-03-17T09:30:06;15.27;;;6.10;;
5121;SDS011;2563;52.242;7.956;2024-03-17T09:32:34;11.93;;;5.10;;
5121;SDS011;2563;52.242;7.956;2024-03-17T09:35:00;10.03;;;4.93;;
5121;SDS011;2563;52.242;7.956;2024-03-17T09:37:26;16.00;;;5.40;;
5121;SDS011;2563;52.242;7.956;2024-03-17T09:39:52;11.30;;;5.53;;
5121;SDS011;2563;52.242;7.956;2024-03-17T09:42:18;9.63;;;5.73;;
5121;SDS011;2563;52.242;7.956;2024-03-17T09:44:47;10.73;;;6.03;;
5121;SDS011;2563;52.242;7.956;2024-03-17T09:47:16;12.43;;;5.70;;
5121;SDS011;2563;52.242;7.956;2024-03-17T09:49:47;14.33;;;5.50;;
5121;SDS011;2563;52.242;7.956;2024-03-17T09:52:20;14.87;;;6.03;;
5121;SDS011;2563;52.242;7.956;2024-03-17T09:54:49;10.50;;;5.13;;
5121;SDS011;2563;52.242;7.956;2024-03-17T09:57:18;10.60;;;5.10;;
5121;SDS011;2563;52.242;7.956;2024-03-17T09:59:51;12.80;;;6.67;;
5121;SDS011;2563;52.242;7.956;2024-03-17T10:02:20;12.70;;;6.27;;
5121;SDS011;2563;52.242;7.956;2024-03-17T10:04:46;11.13;;;6.27;;
5121;SDS011;2563;52.242;7.956;2024-03-17T10:07:11;15.63;;;6.40;;
5121;SDS011;2563;52.242;7.956;2024-03-17T10:09:37;12.40;;;6.90;;
5121;SDS011;2563;52.242;7.956;2024-03-17T10:12:04;12.90;;;5.67;;
5121;SDS011;2563;52.242;7.956;2024-03-17T10:14:30;12.20;;;6.50;;
5121;SDS011;2563;52.242;7.956;2024-03-17T10:16:56;12.33;;;6.13;;
5121;SDS011;2563;52.242;7.956;2024-03-17T10:19:22;14.13;;;6.50;;
5121;SDS011;2563;52.242;7.956;2024-03-17T10:21:49;11.10;;;5.33;;
5121;SDS011;2563;52.242;7.956;2024-03-17T10:24:22;10.87;;;5.90;;
5121;SDS011;2563;52.242;7.956;2024-03-17T10:26:51;12.20;;;6.57;;
5121;SDS011;2563;52.242;7.956;2024-03-17T10:29:27;9.40;;;5.73;;
5121;SDS011;2563;52.242;7.956;2024-03-17T10:32:04;10.30;;;5.80;;
5121;SDS011;2563;52.242;7.956;2024-03-17T10:34:43;14.00;;;6.30;;
5121;SDS011;2563;52.242;7.956;2024-03-17T10:37:19;13.93;;;7.07;;
5121;SDS011;2563;52.242;7.956;2024-03-17T10:39:48;8.40;;;5.40;;
5121;SDS011;2563;52.242;7.956;2024-03-17T10:42:20;14.53;;;6.27;;
5121;SDS011;2563;52.242;7.956;2024-03-17T10:44:49;13.67;;;7.03;;
5121;SDS011;2563;52.242;7.956;2024-03-17T10:47:20;15.70;;;6.40;;
5121;SDS011;2563;52.242;7.956;2024-03-17T10:49:47;10.70;;;5.77;;
5121;SDS011;2563;52.242;7.956;2024-03-17T10:52:16;9.80;;;5.67;;
5121;SDS011;2563;52.242;7.956;2024-03-17T10:54:54;12.77;;;5.83;;
5121;SDS011;2563;52.242;7.956;2024-03-17T11:00:02;10.97;;;5.77;;
5121;SDS011;2563;52.242;7.956;2024-03-17T11:02:30;8.53;;;5.13;;
5121;SDS011;2563;52.242;7.956;2024-03-17T11:04:58;6.87;;;4.60;;
5121;SDS011;2563;52.242;7.956;2024-03-17T11:07:24;8.77;;;5.30;;
5121;SDS011;2563;52.242;7.956;2024-03-17T11:09:52;10.07;;;6.60;;
5121;SDS011;2563;52.242;7.956;2024-03-17T11:18:28;10.63;;;6.00;;
5121;SDS011;2563;52.242;7.956;2024-03-17T11:20:34;13.50;;;7.00;;
5121;SDS011;2563;52.242;7.956;2024-03-17T11:23:00;11.67;;;6.13;;
5121;SDS011;2563;52.242;7.956;2024-03-17T11:27:55;12.40;;;7.00;;
5121;SDS011;2563;52.242;7.956;2024-03-17T11:38:52;11.63;;;7.03;;
5121;SDS011;2563;52.242;7.956;2024-03-17T11:41:42;15.53;;;7.67;;
5121;SDS011;2563;52.242;7.956;2024-03-17T11:51:54;14.10;;;8.40;;
5121;SDS011;2563;52.242;7.956;2024-03-17T11:54:22;16.33;;;7.67;;
5121;SDS011;2563;52.242;7.956;2024-03-17T11:56:50;15.40;;;8.70;;
5121;SDS011;2563;52.242;7.956;2024-03-17T11:59:20;17.07;;;7.70;;
5121;SDS011;2563;52.242;7.956;2024-03-17T12:01:47;16.17;;;7.53;;
5121;SDS011;2563;52.242;7.956;2024-03-17T12:04:18;11.63;;;6.60;;
5121;SDS011;2563;52.242;7.956;2024-03-17T12:06:51;12.17;;;7.27;;
5121;SDS011;2563;52.242;7.956;2024-03-17T12:11:45;13.40;;;7.40;;
5121;SDS011;2563;52.242;7.956;2024-03-17T12:14:20;11.77;;;7.33;;
5121;SDS011;2563;52.242;7.956;2024-03-17T12:16:50;11.77;;;6.70;;
5121;SDS011;2563;52.242;7.956;2024-03-17T12:19:19;12.10;;;6.87;;
5121;SDS011;2563;52.242;7.956;2024-03-17T12:21:48;11.63;;;6.63;;
5121;SDS011;2563;52.242;7.956;2024-03-17T12:24:18;11.90;;;6.50;;
5121;SDS011;2563;52.242;7.956;2024-03-17T12:26:45;13.33;;;6.77;;
5121;SDS011;2563;52.242;7.956;2024-03-17T12:32:02;14.00;;;6.70;;
5121;SDS011;2563;52.242;7.956;2024-03-17T12:34:33;12.60;;;6.80;;
5121;SDS011;2563;52.242;7.956;2024-03-17T12:36:59;13.63;;;7.30;;
5121;SDS011;2563;52.242;7.956;2024-03-17T12:42:10;14.37;;;6.90;;
5121;SDS011;2563;52.242;7.956;2024-03-17T12:44:57;13.10;;;6.83;;
5121;SDS011;2563;52.242;7.956;2024-03-17T12:47:27;14.23;;;7.77;;
5121;SDS011;2563;52.242;7.956;2024-03-17T12:49:54;13.67;;;6.63;;
5121;SDS011;2563;52.242;7.956;2024-03-17T12:52:24;11.40;;;6.43;;
5121;SDS011;2563;52.242;7.956;2024-03-17T12:55:01;14.77;;;7.67;;
5121;SDS011;2563;52.242;7.956;2024-03-17T12:57:50;15.60;;;7.70;;
5121;SDS011;2563;52.242;7.956;2024-03-17T13:01:04;12.83;;;6.70;;
5121;SDS011;2563;52.242;7.956;2024-03-17T13:03:32;10.93;;;6.20;;
5121;SDS011;2563;52.242;7.956;2024-03-17T13:05:59;13.27;;;7.53;;
5121;SDS011;2563;52.242;7.956;2024-03-17T13:08:25;13.90;;;6.73;;
5121;SDS011;2563;52.242;7.956;2024-03-17T13:10:51;12.33;;;6.97;;
5121;SDS011;2563;52.242;7.956;2024-03-17T13:13:16;12.73;;;7.40;;
5121;SDS011;2563;52.242;7.956;2024-03-17T13:15:42;12.87;;;7.10;;
5121;SDS011;2563;52.242;7.956;2024-03-17T13:18:08;16.23;;;8.13;;
5121;SDS011;2563;52.242;7.956;2024-03-17T13:20:34;14.13;;;7.17;;
5121;SDS011;2563;52.242;7.956;2024-03-17T13:23:00;12.20;;;6.70;;
5121;SDS011;2563;52.242;7.956;2024-03-17T13:25:26;12.97;;;7.00;;
5121;SDS011;2563;52.242;7.956;2024-03-17T13:27:59;13.20;;;7.10;;
5121;SDS011;2563;52.242;7.956;2024-03-17T13:30:26;11.30;;;6.13;;
5121;SDS011;2563;52.242;7.956;2024-03-17T13:32:53;14.63;;;7.17;;
5121;SDS011;2563;52.242;7.956;2024-03-17T13:35:29;13.57;;;6.80;;
5121;SDS011;2563;52.242;7.956;2024-03-17T13:37:55;12.80;;;6.53;;
5121;SDS011;2563;52.242;7.956;2024-03-17T13:40:25;11.20;;;5.77;;
5121;SDS011;2563;52.242;7.956;2024-03-17T13:42:52;11.97;;;6.57;;
5121;SDS011;2563;52.242;7.956;2024-03-17T13:45:19;10.33;;;6.00;;
5121;SDS011;2563;52.242;7.956;2024-03-17T13:47:50;9.77;;;5.57;;
5121;SDS011;2563;52.242;7.956;2024-03-17T13:50:20;12.37;;;6.30;;
5121;SDS011;2563;52.242;7.956;2024-03-17T13:52:45;12.73;;;5.30;;
5121;SDS011;2563;52.242;7.956;2024-03-17T13:55:17;12.37;;;6.20;;
5121;SDS011;2563;52.242;7.956;2024-03-17T13:57:45;13.20;;;5.73;;
5121;SDS011;2563;52.242;7.956;2024-03-17T14:00:16;11.00;;;5.03;;
5121;SDS011;2563;52.242;7.956;2024-03-17T14:02:43;12.77;;;5.70;;
5121;SDS011;2563;52.242;7.956;2024-03-17T14:05:10;13.33;;;5.90;;
5121;SDS011;2563;52.242;7.956;2024-03-17T14:07:37;10.67;;;5.70;;
5121;SDS011;2563;52.242;7.956;2024-03-17T14:10:03;18.03;;;8.23;;
5121;SDS011;2563;52.242;7.956;2024-03-17T14:12:28;12.30;;;6.80;;
5121;SDS011;2563;52.242;7.956;2024-03-17T14:14:55;10.53;;;5.83;;
5121;SDS011;2563;52.242;7.956;2024-03-17T14:17:21;12.73;;;5.43;;
5121;SDS011;2563;52.242;7.956;2024-03-17T14:19:46;10.67;;;5.80;;
5121;SDS011;2563;52.242;7.956;2024-03-17T14:22:12;12.80;;;6.17;;
5121;SDS011;2563;52.242;7.956;2024-03-17T14:24:37;9.90;;;5.10;;
5121;SDS011;2563;52.242;7.956;2024-03-17T14:27:02;11.27;;;5.30;;
5121;SDS011;2563;52.242;7.956;2024-03-17T14:29:29;14.07;;;6.30;;
5121;SDS011;2563;52.242;7.956;2024-03-17T14:31:54;11.00;;;6.20;;
5121;SDS011;2563;52.242;7.956;2024-03-17T14:34:19;14.63;;;6.23;;
5121;SDS011;2563;52.242;7.956;2024-03-17T14:36:45;9.67;;;5.20;;
5121;SDS011;2563;52.242;7.956;2024-03-17T14:39:10;12.70;;;6.30;;
5121;SDS011;2563;52.242;7.956;2024-03-17T14:41:36;16.77;;;5.70;;
5121;SDS011;2563;52.242;7.956;2024-03-17T14:44:01;11.67;;;6.00;;
5121;SDS011;2563;52.242;7.956;2024-03-17T14:46:29;12.33;;;6.30;;
5121;SDS011;2563;52.242;7.956;2024-03-17T14:48:54;9.40;;;5.10;;
5121;SDS011;2563;52.242;7.956;2024-03-17T14:51:20;16.77;;;5.67;;
5121;SDS011;2563;52.242;7.956;2024-03-17T14:53:48;11.00;;;5.93;;
5121;SDS011;2563;52.242;7.956;2024-03-17T14:56:17;12.97;;;6.13;;
5121;SDS011;2563;52.242;7.956;2024-03-17T14:58:43;15.30;;;6.47;;
5121;SDS011;2563;52.242;7.956;2024-03-17T15:01:11;12.00;;;5.83;;
5121;SDS011;2563;52.242;7.956;2024-03-17T15:03:36;17.70;;;6.30;;
5121;SDS011;2563;52.242;7.956;2024-03-17T15:06:02;10.27;;;5.57;;
5121;SDS011;2563;52.242;7.956;2024-03-17T15:08:30;11.93;;;5.93;;
5121;SDS011;2563;52.242;7.956;2024-03-17T15:10:56;9.40;;;4.80;;
5121;SDS011;2563;52.242;7.956;2024-03-17T15:13:21;13.37;;;5.57;;
5121;SDS011;2563;52.242;7.956;2024-03-17T15:15:48;10.90;;;5.00;;
5121;SDS011;2563;52.242;7.956;2024-03-17T15:18:14;9.67;;;4.60;;
5121;SDS011;2563;52.242;7.956;2024-03-17T15:20:39;13.03;;;6.63;;
5121;SDS011;2563;52.242;7.956;2024-03-17T15:23:05;11.70;;;5.47;;
5121;SDS011;2563;52.242;7.956;2024-03-17T15:25:30;9.37;;;5.23;;
5121;SDS011;2563;52.242;7.956;2024-03-17T15:27:56;13.00;;;5.87;;
5121;SDS011;2563;52.242;7.956;2024-03-17T15:30:21;11.20;;;5.83;;
5121;SDS011;2563;52.242;7.956;2024-03-17T15:32:50;11.07;;;5.57;;
5121;SDS011;2563;52.242;7.956;2024-03-17T15:35:19;13.30;;;5.30;;
5121;SDS011;2563;52.242;7.956;2024-03-17T15:37:45;13.80;;;6.57;;
5121;SDS011;2563;52.242;7.956;2024-03-17T15:40:11;15.33;;;6.50;;
5121;SDS011;2563;52.242;7.956;2024-03-17T15:42:46;14.53;;;6.70;;
5121;SDS011;2563;52.242;7.956;2024-03-17T15:45:13;12.53;;;6.30;;
5121;SDS011;2563;52.242;7.956;2024-03-17T15:47:39;12.13;;;5.97;;